Weather observations for the past three days for
Anniston Metro Airport
Metric (Imperial)
Date Time (cdt) Wind (kph) Vis. (km) Weather Sky Cond. Temperature (ºC) Relative Humidity Wind Chill (°C) Heat Index (°C) Pressure Precipitation (cm)
Air Dwpt 6 hour altimeter (cm) sea level (mb) 1 hr 3 hr 6 hr
Max. Min.
10 10:53 Calm 16.09 Fair CLR 22.2 16.1 68% 76.38 1017.7
10 09:53 Vrbl 6 16.09 Mostly Cloudy BKN022 21.7 16.7 73% 76.38 1017.9
10 08:53 Calm 16.09 Overcast OVC018 18.9 16.7 87% 76.38 1017.9
10 07:53 Calm 14.48 Overcast OVC006 17.8 16.7 93% 76.33 1017.4
10 06:53 Calm 14.48 Overcast OVC006 17.8 16.7 17.8 15.6 93% 76.28 1016.5
10 05:53 Calm 14.48 Overcast OVC006 17.8 16.7 93% 76.2 1015.5
10 04:53 Calm 16.09 Overcast OVC007 17.8 16.7 93% 76.15 1014.8
10 03:53 Calm 14.48 Overcast OVC006 17.8 17.2 96% 76.12 1014.2
10 02:53 S 6 16.09 Overcast OVC005 17.8 16.7 93% 76.07 1013.7
10 01:53 Calm 16.09 Overcast OVC007 16.7 16.1 96% 76.1 1014.1
10 00:53 Calm 9.66 Fog/Mist OVC009 15.6 15 20 15.6 96% 76.1 1014.3
09 23:53 Calm 8.05 Fog/Mist CLR 16.1 15.6 97% 76.12 1014.5
09 22:53 Calm 16.09 Mostly Cloudy BKN040 17.2 16.1 93% 76.15 1014.8
09 21:53 Calm 16.09 Overcast OVC041 17.2 16.7 97% 76.12 1014.5
09 20:53 Calm 16.09 Fair CLR 17.8 16.7 93% 76.07 1013.8
09 19:53 Calm 16.09 Fair CLR 18.3 16.7 90% 76 1012.9
09 18:53 Calm 16.09 Fair CLR 20 16.7 22.8 20 81% 75.95 1012.3
09 17:53 SW 7 16.09 Fair CLR 21.1 16.7 76% 75.92 1011.9
09 16:53 SW 9 16.09 Fair CLR 21.7 16.1 71% 75.9 1011.6
09 15:53 SW 9 16.09 Fair CLR 22.8 16.1 66% 75.9 1011.5
09 14:53 SW 9 16.09 Fair CLR 22.2 15.6 66% 75.9 1011.6
09 13:53 Vrbl 6 16.09 Fair CLR 21.7 15.6 68% 75.92 1011.9
09 12:53 S 9 16.09 A Few Clouds FEW021 20.6 15.6 21.1 15 73% 75.97 1012.4
09 11:53 SW 13 16.09 A Few Clouds FEW018 20.6 15.6 73% 76 1012.9
09 10:53 SW 15 16.09 Overcast OVC015 18.3 15 81% 76.05 1013.6
09 09:53 SW 9 16.09 Overcast FEW010 OVC014 17.8 15.6 87% 76 1013.1
09 08:53 SW 13 16.09 Overcast OVC012 17.2 15.6 90% 76.05 1013.5
09 07:53 SW 6 16.09 Overcast OVC005 16.1 15 93% 75.97 1012.5
09 06:53 SW 9 16.09 Overcast OVC008 15 13.9 15 12.2 93% 75.95 1012.4
09 05:53 S 6 16.09 Overcast OVC013 15 13.3 90% 75.9 1011.6
09 04:53 N 11 16.09 Partly Cloudy SCT034 14.4 12.8 90% 75.87 1011.3
09 03:53 SW 6 16.09 Overcast BKN013 OVC020 13.9 12.8 93% 76 1012.9
09 02:53 Calm 16.09 Partly Cloudy SCT024 12.8 12.2 96% 75.95 1012.1
09 01:53 Calm 16.09 Mostly Cloudy BKN030 13.3 12.2 93% 75.92 1011.7
09 00:53 Calm 16.09 Partly Cloudy SCT036 13.3 12.2 17.2 13.3 93% 75.97 1012.6
08 23:53 Calm 16.09 Fair CLR 13.9 12.2 90% 76 1013.1
08 22:53 NE 6 16.09 Fair CLR 15 12.2 83% 76 1013.0
08 21:53 NE 6 16.09 Fair CLR 15 12.2 83% 76.05 1013.5
08 20:53 NE 6 16.09 Fair CLR 15.6 12.8 84% 76.02 1013.4
08 19:53 Calm 16.09 Fair CLR 15.6 12.8 84% 76.02 1013.4
08 18:53 Calm 16.09 Fair CLR 17.2 12.2 20.6 17.2 73% 76.1 1014.4
08 17:53 SW 7 16.09 Fair CLR 17.8 12.2 70% 76.1 1014.4
08 16:53 S 6 16.09 Fair CLR 18.9 12.2 65% 76.05 1013.9
08 15:53 Vrbl 6 16.09 Fair CLR 20 10 53% 76.1 1014.2
08 14:53 S 7 16.09 Fair CLR 20 10 53% 76.12 1014.5
08 13:53 Vrbl 6 16.09 Fair CLR 20.6 8.9 47% 76.15 1015.1
08 12:53 E 9 16.09 Fair CLR 20.6 7.2 20.6 11.7 42% 76.23 1015.9
08 11:53 Vrbl 7 16.09 Fair CLR 19.4 8.3 49% 76.28 1016.9
08 10:53 E 11 16.09 Fair CLR 18.3 8.9 54% 76.33 1017.5
08 09:53 E 11 16.09 Fair CLR 17.8 8.9 56% 76.38 1018.0
08 08:53 E 9 16.09 Fair CLR 15 9.4 69% 76.4 1018.4
08 07:53 E 7 16.09 Fair CLR 12.8 10.6 87% 76.38 1018.2
08 06:53 E 7 16.09 Fair CLR 11.7 10.6 12.8 10.6 93% 76.35 1017.8
08 05:53 Calm 14.48 Fair CLR 11.1 10 93% 76.28 1016.8
08 04:53 E 6 16.09 Fair CLR 11.1 10.6 97% 76.2 1015.6
08 03:53 NE 6 16.09 Fair CLR 11.7 11.1 96% 76.17 1015.2
08 02:53 SE 6 14.48 Fair CLR 11.7 11.1 96% 76.15 1015.1
08 01:53 Calm 16.09 Fair CLR 12.2 11.7 97% 76.17 1015.2
08 00:53 Calm 16.09 Fair CLR 12.8 12.2 19.4 11.7 96% 76.2 1015.7
07 23:53 Calm 16.09 Fair CLR 13.3 12.2 93% 76.2 1015.7
07 22:53 Calm 16.09 Fair CLR 13.3 12.2 93% 76.2 1015.7
07 21:53 Calm 16.09 Fair CLR 14.4 12.2 87% 76.2 1015.6
07 20:53 N 6 16.09 Partly Cloudy SCT041 17.8 11.1 65% 76.17 1015.1
07 19:53 Calm 16.09 Mostly Cloudy BKN042 18.3 11.7 66% 76.12 1014.5
07 18:53 NW 7 16.09 Mostly Cloudy BKN043 19.4 12.8 21.7 19.4 66% 76.1 1014.0
07 17:53 Vrbl 7 16.09 Partly Cloudy FEW030 SCT039 20.6 13.9 66% 76.05 1013.5
07 16:53 NW 11 16.09 Partly Cloudy SCT033 20.6 13.3 63% 76.02 1013.2
07 15:53 Vrbl 9 16.09 Mostly Cloudy BKN033 21.7 14.4 63% 76.02 1013.1
07 14:53 Calm 16.09 Overcast OVC027 20 13.9 68% 76.02 1012.9
07 13:53 NW 13 16.09 Overcast BKN023 OVC029 19.4 14.4 73% 76.05 1013.5
07 12:53 NW 11 16.09 Overcast OVC024 20 15 21.1 18.3 73% 76.07 1013.5 0.18
07 11:53 W 19 G 28 16.09 Overcast FEW020 BKN029 OVC035 20.6 15.6 73% 76.05 1013.5
Date Time (cdt) Wind (kph) Vis. (km) Weather Sky Cond. Air Dwpt Max. Min. Relative Humidity Wind Chill (°C) Heat Index (°C) altimeter (cm) sea level (mb) 1 hr 3 hr 6 hr
6 hour
Temperature (ºC) Pressure Precipitation (cm)